Time;durP1;ratioP1;P1;durP2;ratioP2;P2;SDS_P1;SDS_P2;PMS_P1;PMS_P2;Temp;Humidity;BMP_temperature;BMP_pressure;BME280_temperature;BME280_humidity;BME280_pressure;Samples;Min_cycle;Max_cycle;Signal;HPM_P1;HPM_P2
2023/06/18 00:01:48;;;;;;;18.75;9.20;;;;;;;18.38;100.00;100854.56;5036673;28;20052;-66
2023/06/18 00:04:15;;;;;;;20.80;10.70;;;;;;;18.30;100.00;100848.91;5040723;28;20048;-66
2023/06/18 00:06:42;;;;;;;23.13;11.40;;;;;;;18.25;100.00;100850.19;5038278;28;20080;-66
2023/06/18 00:09:08;;;;;;;20.67;10.18;;;;;;;18.24;100.00;100844.06;5033872;28;20056;-66
2023/06/18 00:11:35;;;;;;;19.70;10.98;;;;;;;18.27;100.00;100846.47;5044234;28;20048;-66
2023/06/18 00:14:02;;;;;;;22.77;10.45;;;;;;;18.44;100.00;100853.28;5026397;28;20058;-66
2023/06/18 00:16:29;;;;;;;19.92;9.65;;;;;;;18.39;100.00;100847.44;5050740;28;20041;-66
2023/06/18 00:18:55;;;;;;;18.48;9.48;;;;;;;18.43;100.00;100843.63;5039878;28;20049;-66
2023/06/18 00:21:22;;;;;;;18.83;9.55;;;;;;;18.50;100.00;100838.75;5037086;28;20299;-66
2023/06/18 00:23:49;;;;;;;23.10;11.15;;;;;;;18.38;100.00;100838.66;5039197;28;20063;-66
2023/06/18 00:26:16;;;;;;;16.98;8.32;;;;;;;18.44;100.00;100832.06;5047939;28;20098;-66
2023/06/18 00:28:42;;;;;;;19.02;8.65;;;;;;;18.54;100.00;100834.94;5032397;28;20087;-66
2023/06/18 00:31:11;;;;;;;24.45;10.57;;;;;;;18.35;100.00;100844.16;5041121;28;20096;-66
2023/06/18 00:33:38;;;;;;;19.17;10.43;;;;;;;18.17;100.00;100842.78;5026863;28;20046;-67
2023/06/18 00:36:06;;;;;;;21.48;11.18;;;;;;;18.09;100.00;100837.97;5043755;28;20478;-67
2023/06/18 00:38:34;;;;;;;20.00;10.43;;;;;;;18.10;100.00;100836.19;5030180;28;20127;-67
2023/06/18 00:41:01;;;;;;;19.45;11.38;;;;;;;18.05;100.00;100836.50;5050962;28;20080;-67
2023/06/18 00:43:28;;;;;;;22.48;10.55;;;;;;;17.97;100.00;100825.56;5043088;28;20136;-67
2023/06/18 00:45:59;;;;;;;21.05;10.20;;;;;;;18.00;100.00;100835.94;5030380;28;20061;-67
2023/06/18 00:48:27;;;;;;;20.30;9.73;;;;;;;18.08;100.00;100825.69;5033367;28;20055;-67
2023/06/18 00:50:54;;;;;;;19.05;9.27;;;;;;;17.98;100.00;100835.22;5033843;28;20054;-67
2023/06/18 00:53:21;;;;;;;17.77;9.02;;;;;;;18.03;100.00;100828.66;5044436;28;20041;-67
2023/06/18 00:55:48;;;;;;;20.55;10.40;;;;;;;18.05;100.00;100827.72;5040401;28;20049;-67
2023/06/18 00:58:17;;;;;;;23.50;11.65;;;;;;;17.97;100.00;100817.59;5048569;28;20049;-67
2023/06/18 01:00:44;;;;;;;16.80;8.73;;;;;;;17.73;100.00;100789.16;5033786;28;20512;-67
2023/06/18 01:03:16;;;;;;;19.17;8.90;;;;;;;18.01;100.00;100819.97;5028222;28;20042;-67
2023/06/18 01:05:50;;;;;;;17.23;8.48;;;;;;;17.92;100.00;100814.41;5030489;28;20106;-67
2023/06/18 01:08:23;;;;;;;17.15;8.25;;;;;;;18.03;100.00;100811.91;5031658;28;20052;-67
2023/06/18 01:11:04;;;;;;;14.27;7.10;;;;;;;18.04;100.00;100805.63;5030724;28;20045;-67
2023/06/18 01:13:32;;;;;;;17.05;8.38;;;;;;;17.94;100.00;100810.72;5023002;28;20053;-67
2023/06/18 01:16:04;;;;;;;16.98;8.07;;;;;;;17.89;100.00;100806.69;5012634;28;20099;-67
2023/06/18 01:18:35;;;;;;;19.00;8.15;;;;;;;17.80;100.00;100800.19;5020303;28;20137;-67
2023/06/18 01:21:10;;;;;;;17.67;8.73;;;;;;;17.90;100.00;100818.97;5011338;28;20056;-67
2023/06/18 01:23:50;;;;;;;18.75;8.52;;;;;;;17.91;100.00;100810.94;5026881;28;20457;-67
2023/06/18 01:26:20;;;;;;;18.58;9.38;;;;;;;18.05;100.00;100804.69;5012990;28;20376;-67
2023/06/18 01:28:51;;;;;;;22.20;9.32;;;;;;;18.04;100.00;100808.28;5010746;28;20149;-67
2023/06/18 01:31:21;;;;;;;16.10;8.18;;;;;;;17.77;100.00;100795.91;5021576;28;20276;-67
2023/06/18 01:33:51;;;;;;;19.83;9.32;;;;;;;17.76;100.00;100806.63;5028677;28;20425;-67
2023/06/18 01:36:34;;;;;;;17.73;7.45;;;;;;;17.95;100.00;100811.56;5016055;28;20053;-67
2023/06/18 01:39:16;;;;;;;18.30;8.85;;;;;;;17.98;100.00;100808.72;5009640;28;20128;-67
2023/06/18 01:41:48;;;;;;;18.75;8.27;;;;;;;18.06;100.00;100811.72;5020128;28;20064;-67
2023/06/18 01:44:19;;;;;;;18.70;9.40;;;;;;;18.03;100.00;100796.00;5009859;28;20053;-67
2023/06/18 01:46:48;;;;;;;16.45;8.35;;;;;;;17.91;100.00;100808.28;5023827;28;20491;-67
2023/06/18 01:49:17;;;;;;;15.27;7.85;;;;;;;18.00;100.00;100805.00;5013402;28;20059;-67
2023/06/18 01:51:45;;;;;;;17.50;7.65;;;;;;;18.06;100.00;100800.25;5026955;28;20054;-67
2023/06/18 01:54:13;;;;;;;15.10;7.57;;;;;;;17.98;100.00;100798.13;5009383;28;20134;-67
2023/06/18 01:56:40;;;;;;;17.55;7.97;;;;;;;17.84;100.00;100791.91;5010185;28;20050;-67
2023/06/18 01:59:07;;;;;;;18.10;8.38;;;;;;;17.93;100.00;100790.47;5009650;28;20056;-67
2023/06/18 02:01:34;;;;;;;16.30;7.22;;;;;;;17.92;100.00;100786.16;5017088;28;20498;-67
2023/06/18 02:04:02;;;;;;;16.42;6.97;;;;;;;17.91;100.00;100789.72;5009894;28;20050;-67
2023/06/18 02:06:29;;;;;;;15.52;7.20;;;;;;;17.99;100.00;100789.25;5020423;28;20152;-67
2023/06/18 02:08:56;;;;;;;15.38;7.15;;;;;;;17.80;100.00;100763.09;5009191;28;20049;-67
2023/06/18 02:11:23;;;;;;;14.13;6.38;;;;;;;18.11;100.00;100791.03;5009581;28;20054;-67
2023/06/18 02:13:50;;;;;;;12.35;5.95;;;;;;;18.11;100.00;100774.28;5009706;28;20468;-67
2023/06/18 02:16:16;;;;;;;15.82;7.43;;;;;;;18.07;100.00;100781.59;5026016;28;20046;-67
2023/06/18 02:18:43;;;;;;;14.85;8.18;;;;;;;18.09;100.00;100784.13;5024023;28;20081;-67
2023/06/18 02:21:10;;;;;;;16.27;7.38;;;;;;;18.03;100.00;100777.47;5029255;28;20141;-67
2023/06/18 02:23:37;;;;;;;18.52;7.35;;;;;;;18.00;100.00;100775.84;5027194;28;20103;-67
2023/06/18 02:26:03;;;;;;;14.05;7.03;;;;;;;17.98;100.00;100775.13;5031038;28;20049;-67
2023/06/18 02:28:30;;;;;;;13.75;6.88;;;;;;;18.09;100.00;100770.91;5032493;28;20050;-67
2023/06/18 02:30:57;;;;;;;14.05;6.40;;;;;;;18.02;100.00;100775.75;5031796;28;20057;-67
2023/06/18 02:33:24;;;;;;;14.45;7.20;;;;;;;17.90;100.00;100772.16;5029771;28;20168;-67
2023/06/18 02:35:50;;;;;;;17.60;7.40;;;;;;;17.95;100.00;100767.38;5029729;28;20079;-67
2023/06/18 02:38:17;;;;;;;13.85;7.07;;;;;;;17.79;100.00;100762.22;5029473;28;20059;-67
2023/06/18 02:40:44;;;;;;;16.70;7.47;;;;;;;17.79;100.00;100772.00;5032356;28;20060;-67
2023/06/18 02:43:12;;;;;;;15.40;7.55;;;;;;;17.77;100.00;100774.75;5032042;28;20056;-67
2023/06/18 02:45:39;;;;;;;16.13;6.72;;;;;;;17.85;100.00;100766.28;5031950;28;20095;-67
2023/06/18 02:48:06;;;;;;;13.43;6.68;;;;;;;17.98;100.00;100768.97;5031940;28;20045;-67
2023/06/18 02:50:33;;;;;;;15.38;7.20;;;;;;;18.01;100.00;100759.03;5032610;28;20403;-67
2023/06/18 02:52:59;;;;;;;14.25;7.25;;;;;;;18.04;100.00;100763.25;5031110;28;20050;-67
2023/06/18 02:55:28;;;;;;;14.10;6.47;;;;;;;18.17;100.00;100766.75;5022583;28;20132;-67
2023/06/18 02:57:54;;;;;;;15.75;6.70;;;;;;;18.16;100.00;100757.09;5032711;28;20053;-67
2023/06/18 03:00:21;;;;;;;17.10;7.80;;;;;;;18.17;100.00;100755.31;5031995;28;20132;-67
2023/06/18 03:02:48;;;;;;;15.23;8.60;;;;;;;18.11;100.00;100748.63;5032081;28;20063;-67
2023/06/18 03:05:15;;;;;;;14.93;7.68;;;;;;;18.24;100.00;100761.03;5031980;28;20051;-67
2023/06/18 03:07:42;;;;;;;15.18;7.22;;;;;;;18.24;100.00;100758.38;5030668;28;20402;-66
2023/06/18 03:10:09;;;;;;;16.52;7.63;;;;;;;18.29;100.00;100762.44;5030918;28;20088;-66
2023/06/18 03:12:36;;;;;;;13.43;6.82;;;;;;;18.26;100.00;100753.84;5031358;28;20045;-66
2023/06/18 03:15:05;;;;;;;14.10;6.32;;;;;;;18.38;100.00;100756.47;5030877;28;20049;-66
2023/06/18 03:17:32;;;;;;;15.65;7.07;;;;;;;18.36;100.00;100755.75;5022804;28;20056;-66
2023/06/18 03:19:59;;;;;;;17.48;7.50;;;;;;;18.25;100.00;100754.78;5022161;28;20061;-66
2023/06/18 03:22:26;;;;;;;13.27;6.38;;;;;;;18.29;100.00;100750.97;5011880;28;20081;-66
2023/06/18 03:24:53;;;;;;;15.25;6.38;;;;;;;18.17;100.00;100756.16;5025008;28;20057;-66
2023/06/18 03:27:19;;;;;;;16.00;7.22;;;;;;;18.17;100.00;100742.09;5032287;28;20046;-66
2023/06/18 03:29:46;;;;;;;14.20;7.47;;;;;;;18.34;100.00;100748.84;5024868;28;20055;-66
2023/06/18 03:32:13;;;;;;;22.60;7.68;;;;;;;18.19;100.00;100743.66;5031295;28;20128;-66
2023/06/18 03:34:42;;;;;;;13.27;7.00;;;;;;;18.30;100.00;100742.91;5012701;28;20399;-66
2023/06/18 03:37:09;;;;;;;15.60;8.13;;;;;;;18.15;100.00;100734.22;5010920;28;20088;-66
2023/06/18 03:39:36;;;;;;;13.77;6.88;;;;;;;18.18;100.00;100736.69;5021699;28;20192;-66
2023/06/18 03:42:03;;;;;;;14.30;7.22;;;;;;;18.23;100.00;100735.50;5031676;28;20045;-66
2023/06/18 03:44:29;;;;;;;17.17;8.23;;;;;;;18.16;100.00;100721.81;5030728;28;20046;-67
2023/06/18 03:46:56;;;;;;;14.35;7.35;;;;;;;18.30;100.00;100740.25;5030614;28;20081;-66
2023/06/18 03:49:23;;;;;;;14.52;7.05;;;;;;;18.27;100.00;100732.50;5031037;28;20067;-66
2023/06/18 03:51:50;;;;;;;15.00;7.45;;;;;;;18.19;100.00;100730.41;5031932;28;20085;-68
2023/06/18 03:54:17;;;;;;;16.30;7.28;;;;;;;18.06;100.00;100737.53;5026584;28;20402;-66
2023/06/18 03:56:43;;;;;;;13.63;7.05;;;;;;;17.99;100.00;100745.03;5031818;28;20360;-66
2023/06/18 03:59:10;;;;;;;14.50;8.02;;;;;;;17.84;100.00;100752.19;5031385;28;20471;-66
2023/06/18 04:01:37;;;;;;;15.25;6.93;;;;;;;17.82;100.00;100742.66;5031145;28;20601;-66
2023/06/18 04:04:04;;;;;;;14.50;6.65;;;;;;;17.81;100.00;100739.19;5024376;28;20129;-66
2023/06/18 04:06:31;;;;;;;14.35;6.43;;;;;;;17.92;100.00;100742.91;5028104;28;20406;-66
2023/06/18 04:08:58;;;;;;;13.40;6.25;;;;;;;17.89;100.00;100749.25;5025326;28;20486;-66
2023/06/18 04:11:24;;;;;;;15.23;7.68;;;;;;;17.94;100.00;100741.84;5031575;28;20080;-66
2023/06/18 04:13:51;;;;;;;12.88;6.00;;;;;;;17.87;100.00;100745.03;5030188;28;20054;-66
2023/06/18 04:16:18;;;;;;;15.23;7.00;;;;;;;17.95;100.00;100745.34;5029980;28;20099;-66
2023/06/18 04:18:45;;;;;;;15.50;7.57;;;;;;;17.95;100.00;100743.53;5018571;28;20050;-66
2023/06/18 04:21:11;;;;;;;13.40;6.65;;;;;;;17.96;100.00;100745.25;5011616;28;20486;-66
2023/06/18 04:23:41;;;;;;;14.65;7.32;;;;;;;18.03;100.00;100743.03;5012432;28;20355;-66
2023/06/18 04:26:07;;;;;;;15.38;7.40;;;;;;;17.85;100.00;100737.16;5026472;28;20129;-66
2023/06/18 04:28:34;;;;;;;13.50;6.97;;;;;;;18.03;100.00;100743.03;5015166;28;20049;-66
2023/06/18 04:31:01;;;;;;;16.50;8.13;;;;;;;18.20;100.00;100731.25;5013975;28;20050;-66
2023/06/18 04:33:28;;;;;;;15.85;7.15;;;;;;;18.29;100.00;100735.94;5013446;28;20064;-66
2023/06/18 04:35:54;;;;;;;14.20;7.45;;;;;;;18.50;100.00;100741.53;5029253;28;20053;-66
2023/06/18 04:38:21;;;;;;;15.05;7.82;;;;;;;18.42;100.00;100738.56;5023279;28;20042;-66
2023/06/18 04:40:49;;;;;;;17.52;8.18;;;;;;;18.41;100.00;100747.44;5017352;28;20129;-66
2023/06/18 04:43:17;;;;;;;15.82;8.40;;;;;;;18.27;100.00;100745.75;5010000;28;20433;-66
2023/06/18 04:45:46;;;;;;;15.30;7.28;;;;;;;18.36;100.00;100755.75;5022435;28;20487;-66
2023/06/18 04:48:14;;;;;;;16.77;7.55;;;;;;;18.32;100.00;100761.34;5029536;28;20049;-66
2023/06/18 04:50:41;;;;;;;15.95;7.70;;;;;;;18.30;100.00;100744.72;5018071;28;20054;-66
2023/06/18 04:53:08;;;;;;;16.45;7.78;;;;;;;18.28;100.00;100751.94;5010435;28;20487;-66
2023/06/18 04:55:35;;;;;;;14.23;6.85;;;;;;;18.31;100.00;100733.13;5029629;28;20041;-66
2023/06/18 04:58:04;;;;;;;15.50;8.13;;;;;;;18.28;100.00;100747.47;5015876;28;20501;-66
2023/06/18 05:00:33;;;;;;;15.48;7.70;;;;;;;18.34;100.00;100748.84;5015115;28;20056;-66
2023/06/18 05:03:00;;;;;;;14.45;7.50;;;;;;;18.33;100.00;100748.00;5009981;28;20053;-66
2023/06/18 05:05:27;;;;;;;15.65;7.60;;;;;;;18.38;100.00;100750.34;5010261;28;20046;-67
2023/06/18 05:07:54;;;;;;;20.45;9.05;;;;;;;18.34;100.00;100739.09;5014447;28;20490;-66
2023/06/18 05:10:21;;;;;;;17.83;9.48;;;;;;;18.25;100.00;100744.19;5028466;28;20046;-66
2023/06/18 05:12:49;;;;;;;14.98;7.57;;;;;;;18.29;100.00;100758.91;5029922;28;20395;-66
2023/06/18 05:15:15;;;;;;;17.60;9.05;;;;;;;18.37;100.00;100745.97;5029033;28;20049;-66
2023/06/18 05:17:42;;;;;;;16.27;9.30;;;;;;;18.47;100.00;100752.34;5011371;28;20068;-66
2023/06/18 05:20:09;;;;;;;17.33;9.27;;;;;;;18.53;100.00;100754.53;5013934;28;20062;-66
2023/06/18 05:22:37;;;;;;;16.52;9.43;;;;;;;18.62;100.00;100757.50;5014828;28;20053;-66
2023/06/18 05:25:04;;;;;;;15.95;7.95;;;;;;;18.48;100.00;100763.78;5020374;28;20048;-66
2023/06/18 05:27:31;;;;;;;18.98;9.38;;;;;;;18.39;100.00;100747.56;5015828;28;20046;-67
2023/06/18 05:29:59;;;;;;;17.63;8.38;;;;;;;18.48;100.00;100751.38;5022581;28;20053;-66
2023/06/18 05:32:26;;;;;;;15.40;7.80;;;;;;;18.48;100.00;100739.91;5020499;28;20049;-67
2023/06/18 05:34:55;;;;;;;15.48;8.07;;;;;;;19.07;100.00;100750.72;5020172;28;20130;-67
2023/06/18 05:37:22;;;;;;;15.68;8.05;;;;;;;18.76;100.00;100746.75;5026572;28;20390;-66
2023/06/18 05:39:51;;;;;;;20.60;9.48;;;;;;;18.93;100.00;100749.06;5019524;28;20053;-66
2023/06/18 05:42:18;;;;;;;19.77;9.05;;;;;;;19.18;100.00;100759.72;5028432;28;20060;-67
2023/06/18 05:44:45;;;;;;;13.57;6.80;;;;;;;19.15;100.00;100748.34;5035623;28;20052;-66
2023/06/18 05:47:12;;;;;;;17.92;8.23;;;;;;;19.09;100.00;100751.44;5024405;28;20073;-66
2023/06/18 05:49:38;;;;;;;13.40;6.85;;;;;;;18.87;100.00;100744.19;5024281;28;20045;-66
2023/06/18 05:52:05;;;;;;;16.10;7.47;;;;;;;19.37;100.00;100748.56;5017973;28;20064;-66
2023/06/18 05:54:32;;;;;;;15.57;7.47;;;;;;;19.40;100.00;100751.81;5017792;28;20042;-66
2023/06/18 05:57:00;;;;;;;16.45;7.78;;;;;;;19.39;100.00;100751.94;5016347;28;20049;-67
2023/06/18 05:59:27;;;;;;;14.50;7.15;;;;;;;19.50;100.00;100746.69;5029287;28;20440;-66
2023/06/18 06:01:54;;;;;;;13.90;7.45;;;;;;;19.45;100.00;100741.72;5027104;28;20048;-67
2023/06/18 06:04:22;;;;;;;14.43;7.43;;;;;;;19.52;100.00;100758.88;5027398;28;20041;-67
2023/06/18 06:06:49;;;;;;;15.75;7.68;;;;;;;19.20;100.00;100760.44;5033251;28;20087;-67
2023/06/18 06:09:16;;;;;;;13.95;6.80;;;;;;;19.28;100.00;100766.00;5029367;28;20466;-66
2023/06/18 06:11:42;;;;;;;12.95;7.15;;;;;;;18.99;100.00;100766.34;5018369;28;20054;-66
2023/06/18 06:14:09;;;;;;;17.90;9.02;;;;;;;19.06;100.00;100769.41;5031509;28;20049;-67
2023/06/18 06:16:36;;;;;;;15.63;7.72;;;;;;;19.20;100.00;100763.94;5016277;28;20575;-67
2023/06/18 06:19:03;;;;;;;12.95;6.45;;;;;;;19.21;100.00;100775.38;5027543;28;20056;-67
2023/06/18 06:21:33;;;;;;;13.32;6.95;;;;;;;19.31;100.00;100774.59;5023624;28;20083;-67
2023/06/18 06:24:00;;;;;;;15.43;6.65;;;;;;;19.09;100.00;100767.38;5029652;28;20079;-66
2023/06/18 06:26:27;;;;;;;15.55;6.90;;;;;;;19.15;100.00;100766.06;5025234;28;20539;-67
2023/06/18 06:28:54;;;;;;;17.20;7.55;;;;;;;19.18;100.00;100770.34;5028887;28;20530;-67
2023/06/18 06:31:21;;;;;;;12.07;6.15;;;;;;;19.04;100.00;100776.63;5029733;28;20049;-67
2023/06/18 06:33:48;;;;;;;15.30;7.30;;;;;;;19.08;100.00;100768.31;5014752;28;20045;-70
2023/06/18 06:36:15;;;;;;;12.80;6.38;;;;;;;19.12;100.00;100777.78;5010286;28;20089;-70
2023/06/18 06:38:42;;;;;;;20.90;9.23;;;;;;;19.03;100.00;100770.47;5031975;28;20073;-70
2023/06/18 06:41:08;;;;;;;14.00;6.80;;;;;;;19.00;100.00;100772.50;5031016;28;20071;-70
2023/06/18 06:43:37;;;;;;;12.93;6.25;;;;;;;19.12;100.00;100779.56;5028288;28;20073;-71
2023/06/18 06:46:04;;;;;;;16.45;8.02;;;;;;;18.77;100.00;100782.94;5027536;28;20077;-71
2023/06/18 06:48:31;;;;;;;13.85;6.40;;;;;;;19.04;100.00;100780.13;5027258;28;20087;-70
2023/06/18 06:50:58;;;;;;;13.25;6.18;;;;;;;18.76;100.00;100784.72;5026452;28;20132;-70
2023/06/18 06:53:25;;;;;;;16.40;7.25;;;;;;;18.63;100.00;100775.09;5027604;28;20047;-70
2023/06/18 06:55:51;;;;;;;12.68;6.97;;;;;;;18.96;100.00;100778.03;5023146;28;20483;-70
2023/06/18 06:58:18;;;;;;;15.60;8.32;;;;;;;19.36;100.00;100768.97;5028215;28;20045;-71
2023/06/18 07:00:45;;;;;;;15.38;8.05;;;;;;;19.38;100.00;100780.31;5030450;28;20092;-70
2023/06/18 07:03:12;;;;;;;17.58;7.95;;;;;;;19.43;100.00;100769.34;5025747;28;20053;-70
2023/06/18 07:05:39;;;;;;;15.00;6.82;;;;;;;20.70;100.00;100772.06;5031676;28;20045;-70
2023/06/18 07:08:05;;;;;;;18.95;8.18;;;;;;;21.00;100.00;100774.06;5031055;28;20056;-70
2023/06/18 07:10:34;;;;;;;16.77;7.88;;;;;;;21.39;100.00;100769.09;5032250;28;20140;-71
2023/06/18 07:13:00;;;;;;;15.68;7.28;;;;;;;21.44;100.00;100758.06;5032311;28;20418;-70
2023/06/18 07:15:27;;;;;;;14.05;6.57;;;;;;;21.71;100.00;100772.72;5031423;28;20041;-70
2023/06/18 07:17:54;;;;;;;13.13;6.75;;;;;;;22.05;100.00;100773.41;5024651;28;20475;-71
2023/06/18 07:20:21;;;;;;;15.55;6.68;;;;;;;22.33;100.00;100769.22;5014967;28;20054;-71
2023/06/18 07:22:48;;;;;;;12.90;6.93;;;;;;;22.70;100.00;100765.13;5030044;28;20651;-71
2023/06/18 07:25:15;;;;;;;11.25;5.78;;;;;;;23.04;100.00;100780.84;5017239;28;20415;-71
2023/06/18 07:27:41;;;;;;;14.23;6.43;;;;;;;22.85;100.00;100770.97;5029000;28;20051;-71
2023/06/18 07:30:09;;;;;;;14.93;7.15;;;;;;;22.97;100.00;100777.03;5030296;28;20557;-71
2023/06/18 07:32:35;;;;;;;13.15;6.47;;;;;;;23.04;100.00;100767.50;5031428;28;20051;-71
2023/06/18 07:35:02;;;;;;;14.50;6.70;;;;;;;22.86;100.00;100773.50;5029815;28;20045;-66
2023/06/18 07:37:29;;;;;;;13.23;6.40;;;;;;;23.28;100.00;100767.13;5034751;28;20050;-67
2023/06/18 07:39:56;;;;;;;12.43;5.88;;;;;;;23.20;100.00;100757.13;5022496;28;20404;-66
2023/06/18 07:42:23;;;;;;;13.48;6.70;;;;;;;23.37;100.00;100754.75;5017936;28;20037;-66
2023/06/18 07:44:51;;;;;;;12.52;6.45;;;;;;;23.60;100.00;100764.19;5016932;28;20041;-67
2023/06/18 07:47:18;;;;;;;14.40;6.40;;;;;;;24.04;100.00;100767.22;5039304;28;20046;-66
2023/06/18 07:49:45;;;;;;;16.80;6.95;;;;;;;24.21;100.00;100768.31;5026713;28;20042;-67
2023/06/18 07:52:12;;;;;;;11.32;5.68;;;;;;;24.07;100.00;100776.78;5029943;28;20055;-67
2023/06/18 07:54:39;;;;;;;12.10;6.55;;;;;;;24.15;100.00;100778.72;5027519;28;20045;-67
2023/06/18 07:57:05;;;;;;;12.15;6.10;;;;;;;24.25;100.00;100779.56;5029041;28;20487;-66
2023/06/18 07:59:32;;;;;;;13.63;6.50;;;;;;;23.75;100.00;100771.75;5023126;28;20052;-66
2023/06/18 08:01:59;;;;;;;12.30;5.68;;;;;;;24.22;100.00;100774.50;5029206;28;20145;-66
2023/06/18 08:04:26;;;;;;;16.70;6.93;;;;;;;23.53;100.00;100744.31;5029452;28;20077;-66
2023/06/18 08:06:53;;;;;;;12.68;6.57;;;;;;;23.94;100.00;100768.22;5019575;28;20060;-67
2023/06/18 08:09:19;;;;;;;14.02;6.85;;;;;;;23.86;100.00;100761.75;5029359;28;20045;-67
2023/06/18 08:11:48;;;;;;;12.73;6.45;;;;;;;23.93;100.00;100767.38;5030817;28;20124;-67
2023/06/18 08:14:14;;;;;;;13.82;6.28;;;;;;;23.59;100.00;100758.97;5025339;28;20053;-66
2023/06/18 08:16:41;;;;;;;14.25;6.55;;;;;;;23.81;100.00;100763.19;5027864;28;20095;-66
2023/06/18 08:19:08;;;;;;;12.27;6.40;;;;;;;24.56;100.00;100757.91;5014394;28;20443;-67
2023/06/18 08:21:35;;;;;;;14.27;6.88;;;;;;;24.25;100.00;100764.34;5010824;28;20086;-66
2023/06/18 08:24:03;;;;;;;16.98;6.68;;;;;;;23.90;100.00;100769.50;5016702;28;20085;-66
2023/06/18 08:26:30;;;;;;;13.75;7.18;;;;;;;23.57;100.00;100769.81;5029871;28;20046;-66
2023/06/18 08:28:57;;;;;;;11.63;6.05;;;;;;;23.27;100.00;100768.94;5024813;28;20116;-67
2023/06/18 08:31:24;;;;;;;15.02;7.18;;;;;;;23.43;100.00;100771.06;5015195;28;20053;-67
2023/06/18 08:33:50;;;;;;;13.00;7.15;;;;;;;23.27;100.00;100760.94;5016453;28;20532;-66
2023/06/18 08:36:22;;;;;;;13.88;6.60;;;;;;;23.41;100.00;100774.84;5019024;28;20566;-66
2023/06/18 08:38:49;;;;;;;13.30;6.90;;;;;;;23.49;100.00;100758.97;5026067;28;20060;-66
2023/06/18 08:41:16;;;;;;;12.32;6.75;;;;;;;23.72;100.00;100769.38;5030311;28;20055;-66
2023/06/18 08:43:43;;;;;;;13.27;6.85;;;;;;;23.64;100.00;100770.09;5030159;28;20059;-66
2023/06/18 08:46:15;;;;;;;11.90;6.03;;;;;;;23.11;100.00;100768.66;5027537;28;20128;-66
2023/06/18 08:49:00;;;;;;;14.90;7.18;;;;;;;22.91;100.00;100770.41;5027722;28;20045;-66
2023/06/18 08:51:27;;;;;;;15.57;7.10;;;;;;;23.17;100.00;100768.09;5023625;28;20057;-66
2023/06/18 08:54:18;;;;;;;14.90;7.10;;;;;;;23.27;100.00;100754.75;5018567;28;20137;-66
2023/06/18 08:56:46;;;;;;;17.00;6.30;;;;;;;23.31;100.00;100757.00;5027367;28;20140;-66
2023/06/18 08:59:14;;;;;;;13.63;6.93;;;;;;;22.99;100.00;100762.56;5022908;28;20053;-66
2023/06/18 09:01:45;;;;;;;13.23;7.38;;;;;;;23.65;100.00;100755.72;5029029;28;20445;-66
2023/06/18 09:04:12;;;;;;;13.65;6.57;;;;;;;22.98;100.00;100762.69;5020805;28;20495;-66
2023/06/18 09:06:39;;;;;;;14.60;6.70;;;;;;;23.11;100.00;100760.66;5016065;28;20072;-66
2023/06/18 09:09:06;;;;;;;13.75;7.03;;;;;;;23.59;100.00;100745.63;5028166;28;20125;-66
2023/06/18 09:11:33;;;;;;;13.80;7.03;;;;;;;23.23;100.00;100758.66;5017149;28;20050;-66
2023/06/18 09:14:04;;;;;;;15.60;7.63;;;;;;;22.75;100.00;100763.78;5017331;28;20085;-66
2023/06/18 09:16:31;;;;;;;13.05;7.13;;;;;;;22.12;100.00;100739.91;5019844;28;20518;-66
2023/06/18 09:18:59;;;;;;;14.75;7.35;;;;;;;22.13;100.00;100770.06;5019767;28;20056;-66
2023/06/18 09:21:42;;;;;;;16.60;7.28;;;;;;;22.26;100.00;100773.38;5028522;28;20056;-66
2023/06/18 09:24:17;;;;;;;17.92;8.38;;;;;;;21.54;100.00;100764.34;5023500;28;20092;-66
2023/06/18 09:26:44;;;;;;;13.80;7.93;;;;;;;21.54;100.00;100758.19;5023271;28;20056;-66
2023/06/18 09:29:11;;;;;;;13.55;6.90;;;;;;;21.59;100.00;100766.63;5022899;28;20045;-66
2023/06/18 09:31:44;;;;;;;15.07;7.80;;;;;;;21.55;100.00;100767.88;5011339;28;20692;-66
2023/06/18 09:34:12;;;;;;;17.10;8.80;;;;;;;21.65;100.00;100770.59;5027141;28;20085;-66
2023/06/18 09:36:41;;;;;;;15.55;7.72;;;;;;;21.29;100.00;100770.84;5026015;28;20376;-66
2023/06/18 09:39:21;;;;;;;15.73;7.63;;;;;;;22.13;100.00;100765.59;5026163;28;20442;-66
2023/06/18 09:41:50;;;;;;;15.65;7.68;;;;;;;21.64;100.00;100771.56;5021221;28;20089;-66
2023/06/18 09:44:17;;;;;;;19.17;8.43;;;;;;;21.55;100.00;100766.03;4981333;28;1214199;-66
2023/06/18 09:46:47;;;;;;;19.25;8.20;;;;;;;21.76;100.00;100763.41;5021776;28;20088;-66
2023/06/18 09:49:19;;;;;;;16.38;7.97;;;;;;;22.06;100.00;100761.78;5019026;28;20359;-66
2023/06/18 09:51:48;;;;;;;14.35;7.80;;;;;;;22.42;100.00;100748.06;5022351;28;20049;-66
2023/06/18 09:54:15;;;;;;;15.98;8.18;;;;;;;22.40;100.00;100750.00;5022431;28;20810;-66
2023/06/18 09:56:59;;;;;;;13.90;7.80;;;;;;;21.90;100.00;100762.22;5033120;28;20041;-66
2023/06/18 09:59:26;;;;;;;15.50;7.65;;;;;;;21.70;100.00;100761.22;5032677;28;20068;-66
2023/06/18 10:01:54;;;;;;;15.10;8.07;;;;;;;22.25;100.00;100750.34;5030222;28;20050;-66
2023/06/18 10:04:22;;;;;;;18.77;9.60;;;;;;;22.45;100.00;100750.44;5019905;28;20053;-66
2023/06/18 10:07:02;;;;;;;16.05;7.90;;;;;;;22.30;100.00;100748.16;5025900;28;20124;-66
2023/06/18 10:09:32;;;;;;;16.20;8.40;;;;;;;22.32;100.00;100751.53;5023964;28;20164;-66
2023/06/18 10:12:01;;;;;;;14.70;7.88;;;;;;;22.39;100.00;100740.34;5024102;28;20058;-66
2023/06/18 10:14:29;;;;;;;15.25;8.13;;;;;;;22.51;100.00;100728.59;5029064;28;20056;-66
2023/06/18 10:17:16;;;;;;;16.55;7.80;;;;;;;22.16;100.00;100719.97;5022347;28;20505;-66
2023/06/18 10:19:47;;;;;;;16.58;7.60;;;;;;;22.44;100.00;100730.94;5018426;28;20056;-66
2023/06/18 10:22:16;;;;;;;17.20;7.90;;;;;;;22.32;100.00;100740.03;5026099;28;20479;-66
2023/06/18 10:25:06;;;;;;;17.48;8.50;;;;;;;22.27;100.00;100739.56;5028812;28;20050;-66
2023/06/18 10:27:35;;;;;;;16.27;7.57;;;;;;;22.78;100.00;100748.47;5022840;28;20384;-66
2023/06/18 10:30:03;;;;;;;13.63;7.32;;;;;;;22.49;100.00;100733.22;5025278;28;20510;-66
2023/06/18 10:32:32;;;;;;;16.63;6.93;;;;;;;22.69;100.00;100742.94;5015726;28;20084;-66
2023/06/18 10:35:01;;;;;;;15.43;7.63;;;;;;;22.60;100.00;100745.59;5025543;28;20053;-66
2023/06/18 10:37:31;;;;;;;15.45;7.47;;;;;;;22.37;100.00;100733.28;5031759;28;20045;-66
2023/06/18 10:39:59;;;;;;;14.93;8.52;;;;;;;22.23;100.00;100741.63;5019586;28;20060;-66
2023/06/18 10:42:25;;;;;;;18.08;8.80;;;;;;;22.07;100.00;100738.59;5019137;28;20140;-66
2023/06/18 10:44:54;;;;;;;17.27;7.65;;;;;;;22.14;100.00;100739.75;5024544;28;20056;-66
2023/06/18 10:47:31;;;;;;;18.50;8.10;;;;;;;22.32;100.00;100740.03;5023538;28;20136;-66
2023/06/18 10:50:01;;;;;;;15.27;8.45;;;;;;;22.15;100.00;100728.97;5018030;28;20092;-66
2023/06/18 10:52:30;;;;;;;16.40;8.05;;;;;;;22.32;100.00;100721.34;5029361;28;20064;-66
2023/06/18 10:55:07;;;;;;;17.48;8.48;;;;;;;21.91;100.00;100731.09;5025898;28;20396;-66
2023/06/18 10:57:41;;;;;;;17.50;7.93;;;;;;;22.37;100.00;100724.47;5028000;28;20046;-66
2023/06/18 11:00:40;;;;;;;17.33;8.55;;;;;;;22.51;100.00;100732.09;5021899;28;20141;-66
2023/06/18 11:03:13;;;;;;;15.43;7.32;;;;;;;22.47;100.00;100729.81;5017837;28;20046;-66
2023/06/18 11:05:41;;;;;;;15.65;7.90;;;;;;;22.16;100.00;100737.81;5020371;28;20135;-66
2023/06/18 11:08:11;;;;;;;16.90;8.27;;;;;;;21.83;100.00;100729.06;5030538;28;20132;-66
2023/06/18 11:11:02;;;;;;;16.27;8.18;;;;;;;21.59;100.00;100722.19;5021555;28;20053;-66
2023/06/18 11:13:33;;;;;;;16.20;8.93;;;;;;;22.05;100.00;100724.56;5017711;28;20049;-66
2023/06/18 11:16:11;;;;;;;18.17;8.20;;;;;;;22.08;100.00;100713.63;5018502;28;20053;-66